< Typhoon 200312 2003 Season Typhoon 200314 >
Typhoon 200313 (DUJUAN)
General InformationTrack Information on Google MapsDetailed Wind InformationAccess Analytics MapList of All Images || NewsDisaster Info.WeblogResourceGoogle EarthGE AnimationAtom FeedGeoJSON
Detalied Best Track (Time Zone = UTC)
Year Month Day Hour Lat. Long. Pressure (hPa) Wind (kt) Class Image Chart
2003 8 27 18 17.6 139.5 1008 0 2 Image Chart
2003 8 28 00 17.8 138.1 1008 0 2 Image Chart
2003 8 28 06 17.1 137.4 1008 0 2 Image Chart
2003 8 28 12 16.2 136.7 1008 0 2 Image Chart
2003 8 28 18 16.0 136.5 1006 0 2 Image Chart
2003 8 29 00 15.8 136.3 1006 0 2 Image Chart
2003 8 29 06 16.0 135.4 1002 0 2 Image Chart
2003 8 29 12 16.0 135.0 1000 0 2 Image Chart
2003 8 29 18 16.0 134.7 998 35 3 Image Chart
2003 8 30 00 16.1 134.5 990 45 3 Image Chart
2003 8 30 06 16.5 134.1 985 50 4 Image Chart
2003 8 30 12 17.5 133.4 980 55 4 Image Chart
2003 8 30 18 18.5 132.2 975 65 5 Image Chart
2003 8 31 00 19.1 131.1 970 65 5 Image Chart
2003 8 31 06 19.8 129.6 960 70 5 Image Chart
2003 8 31 12 20.2 128.3 960 70 5 Image Chart
2003 8 31 18 20.4 126.9 960 70 5 Image Chart
2003 9 1 00 20.8 125.3 950 80 5 Image Chart
2003 9 1 06 20.9 123.7 950 80 5 Image Chart
2003 9 1 12 21.3 121.9 950 80 5 Image Chart
2003 9 1 18 21.6 120.1 950 80 5 Image Chart
2003 9 2 00 22.1 118.0 950 80 5 Image Chart
2003 9 2 06 22.3 116.6 960 70 5 Image Chart
2003 9 2 12 22.6 114.6 975 60 4 Image Chart
2003 9 2 18 22.6 112.7 990 45 3 Image Chart
2003 9 3 00 22.5 110.7 996 0 2 Image Chart
Japan Meteorological Agency Best Track Data | Correction Date : 2004-02-17
< Typhoon 200312 2003 Season Typhoon 200314 >

Help